Chrisanthi — SX7108 — position and weather

sailwx.info

Track history (hours):
 
Tides and Currents Weather Stations Pressure Air Temp Water Temp Dewpoint Dewpoint Depression Visibility Wind Speed Wind Dir Waves Ship Positions

Chrisanthi

Last reported at 2014-Aug-21 19:32 UTC. Time now 2014-Aug-21 20:03 UTC.
Position N 37°20' E 024°55'.

Length 56 m; draft 3.9 m.

Type: Tanker. MMSI: 237009100.

Date/timePositionNaut miles runAvg speedWind from/ knotsBaromVisibWave heightAir tempDewpointWater temp
2014-Aug-21 19:32N 37°20' E 024°55'5010.1
2014-Aug-21 14:33N 37°36' E 023°55'1010.3
2014-Aug-21 13:33N 37°39' E 023°43'1010.0
2014-Aug-21 12:33N 37°48' E 023°37'1010.0
2014-Aug-21 11:33N 37°51' E 023°25'16 1.5
2014-Aug-21 01:22N 37°55' E 023°05'17 3.4
2014-Aug-20 20:32N 37°51' E 023°26'1010.6
2014-Aug-20 19:33N 37°51' E 023°39'1110.5
2014-Aug-20 18:31N 37°41' E 023°45'29 9.2
2014-Aug-20 15:24N 37°48' E 024°20'33 1.8
2014-Aug-19 21:30N 37°34' E 024°59'1010.5
2014-Aug-19 20:33N 37°25' E 025°01'1110.2
2014-Aug-19 19:31N 37°14' E 025°05'10 9.5
2014-Aug-19 18:30N 37°05' E 025°08'1 0.2
2014-Aug-19 15:25N 37°05' E 025°09'0 0.0
2014-Aug-19 14:10N 37°05' E 025°09'0 0.0
2014-Aug-19 13:19N 37°05' E 025°09'0 0.0
2014-Aug-19 12:27N 37°05' E 025°09'0 0.0
2014-Aug-19 10:25N 37°05' E 025°09'0 0.0
2014-Aug-19 09:32N 37°05' E 025°09'0 0.0
2014-Aug-19 08:29N 37°05' E 025°09'0 0.0
2014-Aug-19 07:29N 37°05' E 025°09'0 0.1
2014-Aug-19 06:32N 37°05' E 025°09'0 0.0
2014-Aug-19 05:32N 37°05' E 025°09'5 5.3
2014-Aug-19 04:33N 37°10' E 025°12'8 8.0
2014-Aug-19 03:33N 37°07' E 025°21'1 1.0
2014-Aug-19 02:33N 37°06' E 025°22'0 0.0
2014-Aug-19 01:33N 37°06' E 025°22'0 0.0
2014-Aug-19 00:33N 37°06' E 025°22'0 0.0
2014-Aug-18 23:33N 37°06' E 025°22'0 0.0
2014-Aug-18 22:33N 37°06' E 025°22'0 0.0
2014-Aug-18 21:33N 37°06' E 025°22'0 0.5
2014-Aug-18 20:33N 37°06' E 025°22'0 0.4
2014-Aug-18 19:33N 37°06' E 025°22'6 5.9
2014-Aug-18 18:33N 37°02' E 025°17'3 3.4
2014-Aug-18 17:33N 37°04' E 025°20'0 0.1
2014-Aug-18 16:33N 37°04' E 025°20'0 0.0
2014-Aug-18 15:33N 37°04' E 025°20'0 0.0
2014-Aug-18 14:33N 37°04' E 025°20'3 3.2
2014-Aug-18 13:33N 37°01' E 025°19'9 9.5
2014-Aug-18 12:33N 36°54' E 025°27'7 7.5
2014-Aug-18 11:33N 36°56' E 025°36'0 0.0
2014-Aug-18 10:33N 36°56' E 025°36'3 3.1
2014-Aug-18 09:33N 36°54' E 025°33'10 9.5
2014-Aug-18 08:33N 36°55' E 025°21'9 8.4
2014-Aug-18 07:32N 36°48' E 025°15'17 1.3
2014-Aug-17 18:33N 36°35' E 025°28'1010.2
2014-Aug-17 17:33N 36°30' E 025°40'1010.1
2014-Aug-17 16:32N 36°30' E 025°53'1010.5
2014-Aug-17 15:32N 36°30' E 026°06'68 4.8
2014-Aug-17 01:26N 36°38' E 027°30'910.2
2014-Aug-17 00:33N 36°38' E 027°19'6 1.7
2014-Aug-16 21:18N 36°37' E 027°12'4 1.4
2014-Aug-16 18:15N 36°41' E 027°10'21 0.5
2014-Aug-15 02:33N 36°57' E 026°52'1210.7
2014-Aug-15 01:26N 37°01' E 026°38'1010.7
2014-Aug-15 00:33N 37°04' E 026°26'1110.7
2014-Aug-14 23:33N 37°07' E 026°13'1110.6
2014-Aug-14 22:33N 37°10' E 026°01'1110.7
2014-Aug-14 21:32N 37°13' E 025°48'1010.5
2014-Aug-14 20:33N 37°16' E 025°35'1010.3
2014-Aug-14 19:33N 37°19' E 025°23'1110.6
2014-Aug-14 18:33N 37°22' E 025°10'1010.0
2014-Aug-14 17:33N 37°26' E 024°59'2 2.0
2014-Aug-14 16:32N 37°26' E 024°56'0 0.0
2014-Aug-14 15:32N 37°26' E 024°56'0 0.0
2014-Aug-14 14:33N 37°26' E 024°56'0 0.0
2014-Aug-14 13:33N 37°26' E 024°56'0 0.0
2014-Aug-14 12:32N 37°26' E 024°56'0 0.0
2014-Aug-14 11:32N 37°26' E 024°56'0 0.2
2014-Aug-14 10:33N 37°26' E 024°56'9 8.8
2014-Aug-14 09:33N 37°17' E 024°58'10 9.9
2014-Aug-14 08:33N 37°07' E 024°58'11 9.9
2014-Aug-14 07:29N 36°57' E 024°57'1010.4
2014-Aug-14 06:33N 36°50' E 025°05'1010.3
2014-Aug-14 05:33N 36°43' E 025°14'2 1.7
2014-Aug-14 04:33N 36°43' E 025°16'0 0.0
2014-Aug-14 03:33N 36°43' E 025°16'5 4.8
2014-Aug-14 02:33N 36°39' E 025°17'1010.3
2014-Aug-14 01:33N 36°29' E 025°21'7 6.7
2014-Aug-14 00:33N 36°23' E 025°26'0 0.0
2014-Aug-13 23:33N 36°23' E 025°26'0 0.0
2014-Aug-13 22:33N 36°23' E 025°26'0 0.0
2014-Aug-13 21:33N 36°23' E 025°26'0 0.0
2014-Aug-13 20:33N 36°23' E 025°26'0 0.0
2014-Aug-13 19:33N 36°23' E 025°26'0 0.0
2014-Aug-13 18:33N 36°23' E 025°26'0 0.0
2014-Aug-13 17:32N 36°23' E 025°26'0 0.0
2014-Aug-13 16:33N 36°23' E 025°26'0 0.0
2014-Aug-13 15:33N 36°23' E 025°26'0 0.0
2014-Aug-13 14:33N 36°23' E 025°26'2 2.0
2014-Aug-13 13:33N 36°24' E 025°23'0 0.0
2014-Aug-13 12:33N 36°24' E 025°23'0 0.0
2014-Aug-13 11:33N 36°24' E 025°23'0 0.0
2014-Aug-13 10:33N 36°24' E 025°23'0 0.0
2014-Aug-13 09:33N 36°24' E 025°23'0 0.0
2014-Aug-13 08:33N 36°24' E 025°23'0 0.0
2014-Aug-13 07:33N 36°24' E 025°23'1 1.5
2014-Aug-13 06:33N 36°24' E 025°25'1 0.9
2014-Aug-13 05:33N 36°23' E 025°25'6 6.2
2014-Aug-13 04:33N 36°30' E 025°25'1010.3
2014-Aug-13 03:33N 36°32' E 025°37'1110.8
2014-Aug-13 02:33N 36°36' E 025°50'1110.8
2014-Aug-13 01:32N 36°39' E 026°03'2110.6
2014-Aug-12 23:32N 36°45' E 026°28'1010.2
2014-Aug-12 22:33N 36°49' E 026°40'1310.4
2014-Aug-12 21:17N 36°53' E 026°56'3 0.6
2014-Aug-12 16:27N 36°55' E 026°58'1210.6
2014-Aug-12 15:21N 36°55' E 026°44'910.7
2014-Aug-12 14:33N 36°56' E 026°33'1110.9
2014-Aug-12 13:31N 36°57' E 026°19'1111.1
2014-Aug-12 12:33N 36°58' E 026°05'1110.8
2014-Aug-12 11:33N 36°57' E 025°52'1010.3
2014-Aug-12 10:33N 36°56' E 025°39'3 2.6
2014-Aug-12 09:33N 36°55' E 025°36'0 0.3
2014-Aug-12 08:33N 36°56' E 025°36'0 0.0
2014-Aug-12 07:33N 36°56' E 025°36'0 0.0
2014-Aug-12 06:33N 36°56' E 025°36'0 0.0
2014-Aug-12 05:33N 36°56' E 025°36'0 0.1
2014-Aug-12 04:33N 36°56' E 025°36'6 5.9
2014-Aug-12 03:33N 36°55' E 025°29'9 8.8
2014-Aug-12 02:33N 37°00' E 025°20'4 4.0
2014-Aug-12 01:33N 37°04' E 025°20'0 0.0
2014-Aug-12 00:33N 37°04' E 025°20'0 0.0
2014-Aug-11 23:33N 37°04' E 025°20'0 0.0
2014-Aug-11 22:33N 37°04' E 025°20'0 0.0
2014-Aug-11 21:33N 37°04' E 025°20'0 0.0
2014-Aug-11 20:33N 37°04' E 025°20'3 2.6
2014-Aug-11 19:33N 37°06' E 025°22'  
Track history (hours):
 
Tides and Currents Weather Stations Pressure Air Temp Water Temp Dewpoint Dewpoint Depression Visibility Wind Speed Wind Dir Waves Ship Positions

Chrisanthi

Last reported at 2014-Aug-21 19:32 UTC. Time now 2014-Aug-21 20:03 UTC.
Position N 37°20' E 024°55'.

Length 56 m; draft 3.9 m.

Type: Tanker. MMSI: 237009100.

Date/timePositionNaut miles runAvg speedWind from/ knotsBaromVisibWave heightAir tempDewpointWater temp
2014-Aug-21 19:32N 37°20' E 024°55'5010.1
2014-Aug-21 14:33N 37°36' E 023°55'1010.3
2014-Aug-21 13:33N 37°39' E 023°43'1010.0
2014-Aug-21 12:33N 37°48' E 023°37'1010.0
2014-Aug-21 11:33N 37°51' E 023°25'16 1.5
2014-Aug-21 01:22N 37°55' E 023°05'17 3.4
2014-Aug-20 20:32N 37°51' E 023°26'1010.6
2014-Aug-20 19:33N 37°51' E 023°39'1110.5
2014-Aug-20 18:31N 37°41' E 023°45'29 9.2
2014-Aug-20 15:24N 37°48' E 024°20'33 1.8
2014-Aug-19 21:30N 37°34' E 024°59'1010.5
2014-Aug-19 20:33N 37°25' E 025°01'1110.2
2014-Aug-19 19:31N 37°14' E 025°05'10 9.5
2014-Aug-19 18:30N 37°05' E 025°08'1 0.2
2014-Aug-19 15:25N 37°05' E 025°09'0 0.0
2014-Aug-19 14:10N 37°05' E 025°09'0 0.0
2014-Aug-19 13:19N 37°05' E 025°09'0 0.0
2014-Aug-19 12:27N 37°05' E 025°09'0 0.0
2014-Aug-19 10:25N 37°05' E 025°09'0 0.0
2014-Aug-19 09:32N 37°05' E 025°09'0 0.0
2014-Aug-19 08:29N 37°05' E 025°09'0 0.0
2014-Aug-19 07:29N 37°05' E 025°09'0 0.1
2014-Aug-19 06:32N 37°05' E 025°09'0 0.0
2014-Aug-19 05:32N 37°05' E 025°09'5 5.3
2014-Aug-19 04:33N 37°10' E 025°12'8 8.0
2014-Aug-19 03:33N 37°07' E 025°21'1 1.0
2014-Aug-19 02:33N 37°06' E 025°22'0 0.0
2014-Aug-19 01:33N 37°06' E 025°22'0 0.0
2014-Aug-19 00:33N 37°06' E 025°22'0 0.0
2014-Aug-18 23:33N 37°06' E 025°22'0 0.0
2014-Aug-18 22:33N 37°06' E 025°22'0 0.0
2014-Aug-18 21:33N 37°06' E 025°22'0 0.5
2014-Aug-18 20:33N 37°06' E 025°22'0 0.4
2014-Aug-18 19:33N 37°06' E 025°22'6 5.9
2014-Aug-18 18:33N 37°02' E 025°17'3 3.4
2014-Aug-18 17:33N 37°04' E 025°20'0 0.1
2014-Aug-18 16:33N 37°04' E 025°20'0 0.0
2014-Aug-18 15:33N 37°04' E 025°20'0 0.0
2014-Aug-18 14:33N 37°04' E 025°20'3 3.2
2014-Aug-18 13:33N 37°01' E 025°19'9 9.5
2014-Aug-18 12:33N 36°54' E 025°27'7 7.5
2014-Aug-18 11:33N 36°56' E 025°36'0 0.0
2014-Aug-18 10:33N 36°56' E 025°36'3 3.1
2014-Aug-18 09:33N 36°54' E 025°33'10 9.5
2014-Aug-18 08:33N 36°55' E 025°21'9 8.4
2014-Aug-18 07:32N 36°48' E 025°15'17 1.3
2014-Aug-17 18:33N 36°35' E 025°28'1010.2
2014-Aug-17 17:33N 36°30' E 025°40'1010.1
2014-Aug-17 16:32N 36°30' E 025°53'1010.5
2014-Aug-17 15:32N 36°30' E 026°06'68 4.8
2014-Aug-17 01:26N 36°38' E 027°30'910.2
2014-Aug-17 00:33N 36°38' E 027°19'6 1.7
2014-Aug-16 21:18N 36°37' E 027°12'4 1.4
2014-Aug-16 18:15N 36°41' E 027°10'21 0.5
2014-Aug-15 02:33N 36°57' E 026°52'1210.7
2014-Aug-15 01:26N 37°01' E 026°38'1010.7
2014-Aug-15 00:33N 37°04' E 026°26'1110.7
2014-Aug-14 23:33N 37°07' E 026°13'1110.6
2014-Aug-14 22:33N 37°10' E 026°01'1110.7
2014-Aug-14 21:32N 37°13' E 025°48'1010.5
2014-Aug-14 20:33N 37°16' E 025°35'1010.3
2014-Aug-14 19:33N 37°19' E 025°23'1110.6
2014-Aug-14 18:33N 37°22' E 025°10'1010.0
2014-Aug-14 17:33N 37°26' E 024°59'2 2.0
2014-Aug-14 16:32N 37°26' E 024°56'0 0.0
2014-Aug-14 15:32N 37°26' E 024°56'0 0.0
2014-Aug-14 14:33N 37°26' E 024°56'0 0.0
2014-Aug-14 13:33N 37°26' E 024°56'0 0.0
2014-Aug-14 12:32N 37°26' E 024°56'0 0.0
2014-Aug-14 11:32N 37°26' E 024°56'0 0.2
2014-Aug-14 10:33N 37°26' E 024°56'9 8.8
2014-Aug-14 09:33N 37°17' E 024°58'10 9.9
2014-Aug-14 08:33N 37°07' E 024°58'11 9.9
2014-Aug-14 07:29N 36°57' E 024°57'1010.4
2014-Aug-14 06:33N 36°50' E 025°05'1010.3
2014-Aug-14 05:33N 36°43' E 025°14'2 1.7
2014-Aug-14 04:33N 36°43' E 025°16'0 0.0
2014-Aug-14 03:33N 36°43' E 025°16'5 4.8
2014-Aug-14 02:33N 36°39' E 025°17'1010.3
2014-Aug-14 01:33N 36°29' E 025°21'7 6.7
2014-Aug-14 00:33N 36°23' E 025°26'0 0.0
2014-Aug-13 23:33N 36°23' E 025°26'0 0.0
2014-Aug-13 22:33N 36°23' E 025°26'0 0.0
2014-Aug-13 21:33N 36°23' E 025°26'0 0.0
2014-Aug-13 20:33N 36°23' E 025°26'0 0.0
2014-Aug-13 19:33N 36°23' E 025°26'0 0.0
2014-Aug-13 18:33N 36°23' E 025°26'0 0.0
2014-Aug-13 17:32N 36°23' E 025°26'0 0.0
2014-Aug-13 16:33N 36°23' E 025°26'0 0.0
2014-Aug-13 15:33N 36°23' E 025°26'0 0.0
2014-Aug-13 14:33N 36°23' E 025°26'2 2.0
2014-Aug-13 13:33N 36°24' E 025°23'0 0.0
2014-Aug-13 12:33N 36°24' E 025°23'0 0.0
2014-Aug-13 11:33N 36°24' E 025°23'0 0.0
2014-Aug-13 10:33N 36°24' E 025°23'0 0.0
2014-Aug-13 09:33N 36°24' E 025°23'0 0.0
2014-Aug-13 08:33N 36°24' E 025°23'0 0.0
2014-Aug-13 07:33N 36°24' E 025°23'1 1.5
2014-Aug-13 06:33N 36°24' E 025°25'1 0.9
2014-Aug-13 05:33N 36°23' E 025°25'6 6.2
2014-Aug-13 04:33N 36°30' E 025°25'1010.3
2014-Aug-13 03:33N 36°32' E 025°37'1110.8
2014-Aug-13 02:33N 36°36' E 025°50'1110.8
2014-Aug-13 01:32N 36°39' E 026°03'2110.6
2014-Aug-12 23:32N 36°45' E 026°28'1010.2
2014-Aug-12 22:33N 36°49' E 026°40'1310.4
2014-Aug-12 21:17N 36°53' E 026°56'3 0.6
2014-Aug-12 16:27N 36°55' E 026°58'1210.6
2014-Aug-12 15:21N 36°55' E 026°44'910.7
2014-Aug-12 14:33N 36°56' E 026°33'1110.9
2014-Aug-12 13:31N 36°57' E 026°19'1111.1
2014-Aug-12 12:33N 36°58' E 026°05'1110.8
2014-Aug-12 11:33N 36°57' E 025°52'1010.3
2014-Aug-12 10:33N 36°56' E 025°39'3 2.6
2014-Aug-12 09:33N 36°55' E 025°36'0 0.3
2014-Aug-12 08:33N 36°56' E 025°36'0 0.0
2014-Aug-12 07:33N 36°56' E 025°36'0 0.0
2014-Aug-12 06:33N 36°56' E 025°36'0 0.0
2014-Aug-12 05:33N 36°56' E 025°36'0 0.1
2014-Aug-12 04:33N 36°56' E 025°36'6 5.9
2014-Aug-12 03:33N 36°55' E 025°29'9 8.8
2014-Aug-12 02:33N 37°00' E 025°20'4 4.0
2014-Aug-12 01:33N 37°04' E 025°20'0 0.0
2014-Aug-12 00:33N 37°04' E 025°20'0 0.0
2014-Aug-11 23:33N 37°04' E 025°20'0 0.0
2014-Aug-11 22:33N 37°04' E 025°20'0 0.0
2014-Aug-11 21:33N 37°04' E 025°20'0 0.0
2014-Aug-11 20:33N 37°04' E 025°20'3 2.6
2014-Aug-11 19:33N 37°06' E 025°22'  

Dump ship's entire track history